Time;durP1;ratioP1;P1;durP2;ratioP2;P2;SDS_P1;SDS_P2;PMS_P1;PMS_P2;Temp;Humidity;BMP_temperature;BMP_pressure;BME280_temperature;BME280_humidity;BME280_pressure;Samples;Min_cycle;Max_cycle;Signal;HPM_P1;HPM_P2
2024/01/27 00:00:11;;;;;;;20.20;6.53;;;;;;;3.13;88.24;103081.34;4958727;28;20198;-68
2024/01/27 00:02:38;;;;;;;19.17;7.50;;;;;;;3.08;88.09;103088.53;4956961;29;20200;-68
2024/01/27 00:05:05;;;;;;;20.80;7.10;;;;;;;3.04;88.60;103092.19;4958121;28;20686;-68
2024/01/27 00:07:31;;;;;;;26.27;6.83;;;;;;;3.23;88.59;103088.94;4957990;28;20575;-68
2024/01/27 00:09:59;;;;;;;23.87;7.20;;;;;;;3.21;88.19;103093.41;4958209;28;20191;-68
2024/01/27 00:12:25;;;;;;;21.93;7.30;;;;;;;3.26;88.65;103095.94;4957916;28;20200;-68
2024/01/27 00:14:52;;;;;;;17.53;7.37;;;;;;;3.25;88.71;103094.19;4957940;28;20185;-68
2024/01/27 00:17:23;;;;;;;17.07;7.33;;;;;;;3.19;88.88;103094.34;4957696;28;20221;-68
2024/01/27 00:19:52;;;;;;;32.53;7.97;;;;;;;3.15;88.50;103090.94;4957841;28;20190;-68
2024/01/27 00:22:20;;;;;;;21.60;8.50;;;;;;;3.16;88.83;103097.97;4957739;28;20194;-68
2024/01/27 00:24:47;;;;;;;32.70;9.27;;;;;;;3.19;88.34;103089.94;4957654;28;20201;-68
2024/01/27 00:27:13;;;;;;;27.57;8.83;;;;;;;3.16;88.33;103095.31;4957647;28;20214;-67
2024/01/27 00:29:40;;;;;;;27.43;9.60;;;;;;;3.19;88.47;103097.88;4957954;28;20247;-67
2024/01/27 00:32:06;;;;;;;24.70;7.87;;;;;;;3.13;88.50;103108.66;4957630;28;20204;-67
2024/01/27 00:34:33;;;;;;;29.60;8.60;;;;;;;3.05;88.72;103109.78;4957848;28;20619;-67
2024/01/27 00:36:59;;;;;;;24.17;8.67;;;;;;;3.05;88.68;103115.94;4957429;28;20695;-68
2024/01/27 00:39:26;;;;;;;28.07;8.10;;;;;;;3.07;88.70;103126.44;4957796;28;20228;-68
2024/01/27 00:41:54;;;;;;;15.87;7.17;;;;;;;3.03;88.22;103130.09;4957479;28;20198;-68
2024/01/27 00:44:21;;;;;;;28.63;7.80;;;;;;;3.07;88.44;103129.94;4957472;28;20264;-68
2024/01/27 00:46:47;;;;;;;20.33;8.13;;;;;;;3.06;88.46;103132.63;4957351;28;20219;-68
2024/01/27 00:49:14;;;;;;;31.33;8.13;;;;;;;2.89;88.53;103143.69;4957395;28;20196;-68
2024/01/27 00:51:41;;;;;;;26.53;8.33;;;;;;;3.03;88.60;103146.81;4957316;28;20192;-67
2024/01/27 00:54:07;;;;;;;31.63;9.10;;;;;;;3.02;88.38;103138.91;4957242;28;20198;-67
2024/01/27 00:56:33;;;;;;;20.13;7.50;;;;;;;2.99;87.87;103144.28;4957438;28;20221;-67
2024/01/27 00:59:00;;;;;;;22.40;8.17;;;;;;;2.95;88.38;103143.53;4955958;28;20221;-67
2024/01/27 01:01:26;;;;;;;24.00;7.07;;;;;;;2.95;88.08;103143.53;4957229;28;20741;-67
2024/01/27 01:03:53;;;;;;;17.87;7.83;;;;;;;2.87;88.24;103142.88;4957447;28;20573;-67
2024/01/27 01:06:19;;;;;;;22.17;7.23;;;;;;;2.92;88.44;103140.97;4957104;28;20221;-67
2024/01/27 01:08:46;;;;;;;19.87;8.77;;;;;;;2.84;88.82;103129.75;4957474;28;20216;-67
2024/01/27 01:11:13;;;;;;;14.13;7.60;;;;;;;2.90;88.57;103136.63;4956998;28;20187;-67
2024/01/27 01:13:39;;;;;;;31.50;8.30;;;;;;;2.87;88.42;103147.28;4957459;28;20244;-67
2024/01/27 01:16:07;;;;;;;26.17;8.40;;;;;;;2.85;88.59;103139.41;4957151;28;20201;-67
2024/01/27 01:18:34;;;;;;;18.13;7.40;;;;;;;2.83;89.15;103135.94;4956988;28;20216;-67
2024/01/27 01:21:00;;;;;;;26.13;8.30;;;;;;;2.86;88.77;103135.84;4957072;28;20193;-67
2024/01/27 01:23:27;;;;;;;18.43;7.37;;;;;;;2.87;88.94;103132.31;4956610;28;20201;-67
2024/01/27 01:25:53;;;;;;;37.10;7.70;;;;;;;2.82;88.96;103138.63;4956674;28;20247;-67
2024/01/27 01:28:20;;;;;;;21.57;8.43;;;;;;;2.84;88.60;103135.06;4956622;28;20243;-67
2024/01/27 01:30:46;;;;;;;26.13;8.13;;;;;;;2.81;88.97;103136.88;4956849;28;20206;-67
2024/01/27 01:33:12;;;;;;;15.27;7.63;;;;;;;2.81;88.73;103137.75;4956805;28;20664;-67
2024/01/27 01:35:39;;;;;;;27.37;7.47;;;;;;;2.84;88.56;103147.38;4956482;28;20661;-67
2024/01/27 01:38:06;;;;;;;25.70;8.87;;;;;;;2.76;88.81;103137.00;4957250;28;20699;-67
2024/01/27 01:40:32;;;;;;;18.23;7.77;;;;;;;2.78;88.79;103151.06;4956676;28;20190;-67
2024/01/27 01:42:59;;;;;;;17.53;7.40;;;;;;;2.72;88.79;103146.78;4956378;28;20200;-67
2024/01/27 01:45:25;;;;;;;22.33;7.67;;;;;;;2.80;88.44;103135.19;4956375;28;20243;-67
2024/01/27 01:47:52;;;;;;;23.20;8.43;;;;;;;2.69;89.08;103136.31;4956202;28;20220;-67
2024/01/27 01:50:19;;;;;;;14.77;8.53;;;;;;;2.71;88.68;103138.94;4956824;28;20548;-67
2024/01/27 01:52:48;;;;;;;17.33;8.83;;;;;;;2.69;88.34;103143.38;4956191;28;20191;-67
2024/01/27 01:55:16;;;;;;;19.43;8.10;;;;;;;2.63;89.39;103139.13;4956173;28;20192;-68
2024/01/27 01:57:43;;;;;;;38.33;9.67;;;;;;;2.60;88.69;103149.78;4955947;28;20673;-67
2024/01/27 02:00:11;;;;;;;19.07;8.90;;;;;;;2.56;89.23;103139.34;4956584;28;20189;-67
2024/01/27 02:02:38;;;;;;;18.53;8.07;;;;;;;2.69;88.79;103144.25;4956246;28;20204;-67
2024/01/27 02:05:05;;;;;;;24.33;8.27;;;;;;;2.63;89.02;103152.31;4956016;28;20265;-67
2024/01/27 02:07:31;;;;;;;30.93;9.57;;;;;;;2.62;89.00;103145.34;4956203;28;20622;-67
2024/01/27 02:09:58;;;;;;;21.70;8.37;;;;;;;2.63;89.14;103149.69;4954323;28;20641;-67
2024/01/27 02:12:24;;;;;;;25.00;9.43;;;;;;;2.60;89.14;103154.19;4955877;28;20199;-67
2024/01/27 02:14:51;;;;;;;17.73;8.43;;;;;;;2.63;89.04;103151.50;4955805;28;20196;-67
2024/01/27 02:17:17;;;;;;;18.07;8.77;;;;;;;2.52;89.52;103149.13;4954829;28;20203;-67
2024/01/27 02:19:44;;;;;;;17.67;9.00;;;;;;;2.52;89.64;103150.88;4956178;28;20220;-67
2024/01/27 02:22:10;;;;;;;23.23;7.73;;;;;;;2.49;89.92;103159.78;4956249;28;20273;-67
2024/01/27 02:24:37;;;;;;;29.80;8.90;;;;;;;2.41;89.62;103145.91;4955567;28;20594;-67
2024/01/27 02:27:04;;;;;;;29.67;9.03;;;;;;;2.42;90.21;103150.25;4955584;28;20207;-67
2024/01/27 02:29:30;;;;;;;28.43;8.10;;;;;;;2.46;90.23;103146.63;4955610;28;20187;-67
2024/01/27 02:31:56;;;;;;;19.77;8.80;;;;;;;2.45;90.18;103146.69;4956068;28;20210;-67
2024/01/27 02:34:23;;;;;;;28.47;9.50;;;;;;;2.56;89.98;103147.25;4955508;28;20594;-67
2024/01/27 02:36:49;;;;;;;24.70;9.67;;;;;;;2.51;89.91;103144.75;4955419;28;20216;-68
2024/01/27 02:39:16;;;;;;;18.07;8.70;;;;;;;2.50;89.60;103140.38;4955343;28;20210;-68
2024/01/27 02:41:42;;;;;;;22.07;8.93;;;;;;;2.43;90.03;103146.72;4955685;28;20183;-68
2024/01/27 02:44:09;;;;;;;22.73;7.93;;;;;;;2.41;89.84;103150.31;4955667;28;20192;-67
2024/01/27 02:46:35;;;;;;;8.87;8.07;;;;;;;2.39;89.69;103152.13;4955282;28;20532;-68
2024/01/27 02:49:02;;;;;;;26.37;9.57;;;;;;;2.32;90.11;103151.41;4955570;29;20614;-67
2024/01/27 02:51:28;;;;;;;22.30;9.00;;;;;;;2.39;89.77;103142.44;4955299;28;20271;-67
2024/01/27 02:53:55;;;;;;;17.60;8.80;;;;;;;2.34;90.32;103148.72;4955802;28;20196;-67
2024/01/27 02:56:21;;;;;;;22.90;8.37;;;;;;;2.30;89.57;103155.84;4955280;28;20194;-67
2024/01/27 02:58:48;;;;;;;22.83;8.57;;;;;;;2.25;89.57;103144.53;4953901;28;20270;-67
2024/01/27 03:01:14;;;;;;;21.60;9.63;;;;;;;2.21;90.08;103156.97;4955515;28;20234;-67
2024/01/27 03:03:41;;;;;;;24.17;9.10;;;;;;;2.25;90.63;103152.47;4955472;29;20179;-67
2024/01/27 03:06:07;;;;;;;25.73;10.03;;;;;;;2.24;90.46;103154.25;4955459;28;20254;-68
2024/01/27 03:08:34;;;;;;;25.63;9.77;;;;;;;2.24;90.60;103148.13;4955068;28;20219;-67
2024/01/27 03:11:00;;;;;;;15.43;8.70;;;;;;;2.20;90.39;103154.38;4955107;28;20738;-67
2024/01/27 03:13:27;;;;;;;22.67;9.17;;;;;;;2.18;90.28;103148.25;4955340;28;20198;-67
2024/01/27 03:15:54;;;;;;;21.97;8.97;;;;;;;2.11;90.11;103159.88;4955054;28;20249;-67
2024/01/27 03:18:20;;;;;;;19.47;7.90;;;;;;;2.03;90.35;103149.53;4954909;28;20210;-67
2024/01/27 03:20:47;;;;;;;21.43;9.43;;;;;;;2.07;90.33;103147.66;4954996;28;20200;-67
2024/01/27 03:23:14;;;;;;;30.57;10.57;;;;;;;1.99;90.44;103144.34;4958167;28;20212;-67
2024/01/27 03:25:40;;;;;;;22.63;9.90;;;;;;;2.00;90.84;103146.94;4959202;28;20231;-67
2024/01/27 03:28:07;;;;;;;21.67;8.90;;;;;;;1.89;90.80;103153.38;4958780;28;20305;-68
2024/01/27 03:30:33;;;;;;;12.97;9.47;;;;;;;1.83;91.29;103147.34;4959144;28;20187;-67
2024/01/27 03:32:59;;;;;;;27.00;10.27;;;;;;;1.91;92.02;103138.41;4959328;28;20184;-67
2024/01/27 03:35:27;;;;;;;18.13;10.33;;;;;;;1.95;91.89;103153.25;4959013;29;20194;-67
2024/01/27 03:37:53;;;;;;;33.60;10.83;;;;;;;1.89;91.78;103151.63;4958838;28;20690;-67
2024/01/27 03:40:20;;;;;;;31.93;11.93;;;;;;;1.97;91.99;103143.50;4958876;29;20194;-67
2024/01/27 03:42:46;;;;;;;25.50;11.27;;;;;;;2.04;91.80;103143.31;4958607;28;20670;-67
2024/01/27 03:45:13;;;;;;;18.80;10.20;;;;;;;1.98;91.79;103148.75;4958841;29;20185;-67
2024/01/27 03:47:39;;;;;;;23.83;10.30;;;;;;;2.03;91.91;103149.53;4958423;28;20207;-68
2024/01/27 03:50:07;;;;;;;22.07;11.20;;;;;;;2.10;91.63;103156.38;4958455;29;20187;-69
2024/01/27 03:52:38;;;;;;;19.40;9.17;;;;;;;2.01;91.29;103166.28;4941839;29;20203;-68
2024/01/27 03:55:05;;;;;;;25.07;10.83;;;;;;;2.02;91.72;103154.81;4958651;28;20613;-68
2024/01/27 03:57:31;;;;;;;21.63;9.70;;;;;;;2.04;91.21;103167.06;4958301;28;20253;-69
2024/01/27 03:59:58;;;;;;;22.37;9.50;;;;;;;2.02;91.19;103173.28;4958223;28;20217;-69
2024/01/27 04:02:24;;;;;;;21.63;9.80;;;;;;;1.93;91.12;103174.38;4958248;28;20189;-69
2024/01/27 04:04:51;;;;;;;33.60;11.07;;;;;;;1.92;91.28;103171.75;4958208;28;20243;-67
2024/01/27 04:07:18;;;;;;;21.40;11.50;;;;;;;1.97;91.48;103169.88;4958057;28;20218;-67
2024/01/27 04:09:44;;;;;;;25.13;11.87;;;;;;;1.87;91.60;103176.31;4958358;29;20198;-66
2024/01/27 04:12:11;;;;;;;25.73;10.33;;;;;;;1.89;91.84;103175.34;4958360;28;20582;-67
2024/01/27 04:14:37;;;;;;;24.17;11.00;;;;;;;1.83;92.01;103186.91;4958330;28;20187;-67
2024/01/27 04:17:04;;;;;;;31.67;12.07;;;;;;;1.96;92.20;103178.69;4958414;28;20273;-66
2024/01/27 04:19:30;;;;;;;35.60;11.77;;;;;;;2.14;91.96;103178.25;4958389;29;20206;-66
2024/01/27 04:21:57;;;;;;;32.87;13.30;;;;;;;2.12;91.80;103185.38;4957903;28;20189;-66
2024/01/27 04:24:23;;;;;;;25.47;11.13;;;;;;;2.10;91.42;103182.75;4957732;28;20667;-67
2024/01/27 04:26:50;;;;;;;22.40;11.33;;;;;;;1.97;91.69;103183.09;4957748;28;20217;-67
2024/01/27 04:29:16;;;;;;;28.57;12.23;;;;;;;2.01;91.96;103179.47;4957767;28;20187;-67
2024/01/27 04:31:43;;;;;;;25.00;11.77;;;;;;;1.99;91.87;103174.25;4958267;28;20195;-68
2024/01/27 04:34:09;;;;;;;27.13;12.43;;;;;;;2.00;91.89;103185.63;4957475;28;20207;-68
2024/01/27 04:36:36;;;;;;;21.40;12.17;;;;;;;2.07;92.29;103171.41;4956276;28;20217;-68
2024/01/27 04:39:04;;;;;;;21.60;13.03;;;;;;;2.16;91.79;103177.34;4957772;29;20206;-68
2024/01/27 04:41:30;;;;;;;25.90;12.70;;;;;;;2.12;91.35;103185.38;4957569;28;20573;-68
2024/01/27 04:43:58;;;;;;;25.97;12.50;;;;;;;2.10;91.16;103188.03;4958092;29;20174;-68
2024/01/27 04:46:25;;;;;;;30.53;13.47;;;;;;;2.11;91.26;103178.34;4957468;29;20191;-68
2024/01/27 04:48:51;;;;;;;32.93;12.30;;;;;;;2.12;90.92;103180.09;4957364;28;20215;-68
2024/01/27 04:51:18;;;;;;;30.70;12.37;;;;;;;2.14;90.87;103189.69;4957731;28;20227;-68
2024/01/27 04:53:44;;;;;;;26.07;12.73;;;;;;;2.10;91.30;103179.25;4957627;28;20605;-67
2024/01/27 04:56:12;;;;;;;35.47;13.70;;;;;;;2.10;91.02;103182.75;4957308;28;20183;-67
2024/01/27 04:58:39;;;;;;;26.30;12.67;;;;;;;2.07;90.72;103193.41;4957132;28;20214;-67
2024/01/27 05:01:06;;;;;;;28.43;14.10;;;;;;;2.01;91.44;103187.38;4957443;29;20650;-67
2024/01/27 05:03:33;;;;;;;32.73;12.80;;;;;;;2.05;90.96;103186.41;4957146;29;20663;-67
2024/01/27 05:06:00;;;;;;;31.43;13.67;;;;;;;2.01;91.15;103185.63;4957414;28;20219;-70
2024/01/27 05:08:26;;;;;;;25.47;12.77;;;;;;;2.02;91.21;103192.63;4957054;28;20590;-70
2024/01/27 05:10:53;;;;;;;23.30;14.90;;;;;;;2.06;91.29;103177.59;4957017;29;20313;-70
2024/01/27 05:13:23;;;;;;;37.87;14.03;;;;;;;2.04;91.16;103182.88;4957317;28;20183;-70
2024/01/27 05:15:50;;;;;;;30.60;13.40;;;;;;;2.09;91.23;103180.13;4957247;28;20212;-70
2024/01/27 05:18:16;;;;;;;31.50;13.97;;;;;;;1.96;91.41;103176.94;4956940;28;20223;-71
2024/01/27 05:20:43;;;;;;;24.43;13.97;;;;;;;2.02;90.99;103181.22;4956861;29;20190;-71
2024/01/27 05:23:09;;;;;;;31.63;14.47;;;;;;;1.97;90.97;103181.31;4956878;28;20202;-70
2024/01/27 05:25:36;;;;;;;28.00;14.03;;;;;;;2.04;91.01;103176.75;4957056;28;20606;-70
2024/01/27 05:28:02;;;;;;;33.93;13.77;;;;;;;2.05;91.14;103170.56;4956724;28;20210;-70
2024/01/27 05:30:28;;;;;;;38.47;12.80;;;;;;;2.04;90.71;103177.63;4956662;29;20188;-70
2024/01/27 05:32:55;;;;;;;27.63;13.07;;;;;;;1.92;91.44;103171.75;4956618;29;20197;-71
2024/01/27 05:35:22;;;;;;;22.37;11.90;;;;;;;1.84;91.53;103170.19;4956547;29;20251;-71
2024/01/27 05:37:48;;;;;;;21.23;13.63;;;;;;;1.76;92.01;103184.44;4956470;28;20210;-70
2024/01/27 05:40:15;;;;;;;25.30;11.37;;;;;;;1.72;92.00;103177.50;4956440;29;20190;-70
2024/01/27 05:42:42;;;;;;;17.07;11.87;;;;;;;1.66;92.22;103178.50;4955594;29;20187;-72
2024/01/27 05:45:10;;;;;;;19.83;11.97;;;;;;;1.54;92.13;103184.06;4956308;28;20249;-71
2024/01/27 05:47:36;;;;;;;22.87;12.37;;;;;;;1.50;92.13;103197.34;4956316;28;20260;-71
2024/01/27 05:50:04;;;;;;;19.53;12.13;;;;;;;1.48;92.48;103194.75;4956565;29;20194;-71
2024/01/27 05:52:30;;;;;;;21.83;11.73;;;;;;;1.59;92.22;103195.38;4956278;29;20187;-71
2024/01/27 05:54:57;;;;;;;31.80;13.17;;;;;;;1.55;92.77;103188.44;4956540;28;20183;-70
2024/01/27 05:57:23;;;;;;;29.83;13.33;;;;;;;1.57;92.21;103183.97;4956385;28;20210;-70
2024/01/27 05:59:50;;;;;;;21.00;11.83;;;;;;;1.46;92.24;103195.69;4956095;29;20217;-71
2024/01/27 06:02:17;;;;;;;25.90;11.80;;;;;;;1.35;92.03;103185.38;4954825;28;20234;-71
2024/01/27 06:04:44;;;;;;;31.43;12.67;;;;;;;1.37;92.31;103179.16;4956029;28;20191;-71
2024/01/27 06:07:10;;;;;;;25.67;12.87;;;;;;;1.50;92.04;103195.56;4956437;28;20246;-71
2024/01/27 06:09:38;;;;;;;25.23;13.10;;;;;;;1.40;92.00;103190.56;4955902;29;20242;-71
2024/01/27 06:12:05;;;;;;;24.63;11.60;;;;;;;1.29;92.22;103201.31;4956481;28;20238;-71
2024/01/27 06:14:31;;;;;;;26.07;12.30;;;;;;;1.26;92.45;103214.56;4956405;28;20650;-71
2024/01/27 06:16:58;;;;;;;18.57;11.87;;;;;;;1.20;92.50;103204.13;4955734;28;20269;-70
2024/01/27 06:19:24;;;;;;;16.60;11.07;;;;;;;1.15;92.75;103203.34;4956225;29;20257;-70
2024/01/27 06:21:51;;;;;;;19.63;11.50;;;;;;;1.15;92.47;103204.22;4955785;28;20186;-71
2024/01/27 06:24:17;;;;;;;25.07;13.67;;;;;;;1.06;92.41;103200.91;4955507;28;20207;-71
2024/01/27 06:26:44;;;;;;;24.13;12.50;;;;;;;0.98;92.54;103197.56;4955559;28;20226;-71
2024/01/27 06:29:10;;;;;;;18.93;11.90;;;;;;;0.96;92.62;103199.34;4955605;29;20191;-71
2024/01/27 06:31:37;;;;;;;24.70;12.10;;;;;;;0.94;92.76;103194.09;4955929;28;20387;-71
2024/01/27 06:34:03;;;;;;;19.60;12.13;;;;;;;0.96;93.01;103204.63;4956129;28;20230;-71
2024/01/27 06:36:30;;;;;;;17.93;12.00;;;;;;;0.94;92.80;103212.53;4955788;28;20178;-70
2024/01/27 06:38:57;;;;;;;30.27;12.53;;;;;;;1.11;92.99;103215.72;4955465;29;20202;-70
2024/01/27 06:41:23;;;;;;;22.53;10.67;;;;;;;1.09;93.21;103214.88;4955456;29;20190;-70
2024/01/27 06:43:50;;;;;;;24.47;10.67;;;;;;;1.19;93.43;103207.69;4955969;28;20534;-71
2024/01/27 06:46:16;;;;;;;18.33;11.60;;;;;;;1.24;93.23;103209.28;4955658;28;20201;-71
2024/01/27 06:48:43;;;;;;;18.43;12.23;;;;;;;1.24;93.78;103211.06;4955359;28;20642;-71
2024/01/27 06:51:10;;;;;;;26.97;11.77;;;;;;;1.32;93.70;103210.00;4955514;29;20218;-71
2024/01/27 06:53:36;;;;;;;26.97;11.83;;;;;;;1.47;93.31;103221.13;4955544;28;20194;-71
2024/01/27 06:56:03;;;;;;;20.90;10.57;;;;;;;1.49;92.84;103227.22;4955262;28;20183;-71
2024/01/27 06:58:30;;;;;;;20.33;10.90;;;;;;;1.49;92.85;103228.09;4955269;28;20219;-71
2024/01/27 07:00:56;;;;;;;18.70;11.17;;;;;;;1.46;92.39;103227.31;4955113;29;20219;-71
2024/01/27 07:03:23;;;;;;;25.20;11.10;;;;;;;1.51;92.67;103234.22;4955521;28;20210;-71
2024/01/27 07:05:50;;;;;;;34.33;12.40;;;;;;;1.69;92.48;103232.97;4955178;29;20587;-71
2024/01/27 07:08:16;;;;;;;24.00;10.70;;;;;;;1.75;91.89;103227.53;4955331;28;20573;-71
2024/01/27 07:10:43;;;;;;;26.87;12.17;;;;;;;1.66;92.14;103247.06;4955631;29;20186;-72
2024/01/27 07:13:09;;;;;;;26.17;10.63;;;;;;;1.55;92.27;103235.88;4955347;28;20193;-72
2024/01/27 07:15:37;;;;;;;25.00;11.40;;;;;;;1.62;92.24;103231.34;4955244;28;20246;-72
2024/01/27 07:18:04;;;;;;;24.43;11.30;;;;;;;1.58;92.58;103251.63;4955292;28;20218;-71
2024/01/27 07:20:31;;;;;;;27.03;10.33;;;;;;;1.58;92.52;103245.50;4954903;29;20217;-71
2024/01/27 07:22:57;;;;;;;21.60;10.23;;;;;;;1.51;92.66;103259.72;4954896;28;20195;-71
2024/01/27 07:25:23;;;;;;;16.57;9.87;;;;;;;1.43;92.81;103259.00;4955541;29;20175;-71
2024/01/27 07:27:50;;;;;;;22.90;9.87;;;;;;;1.52;92.83;103258.81;4954916;28;20210;-71
2024/01/27 07:30:16;;;;;;;16.40;9.53;;;;;;;1.45;92.66;103258.06;4955158;28;20586;-71
2024/01/27 07:32:44;;;;;;;28.03;11.73;;;;;;;1.42;92.99;103257.25;4954927;28;20198;-71
2024/01/27 07:35:10;;;;;;;18.07;10.90;;;;;;;1.49;93.11;103253.59;4955096;28;20281;-71
2024/01/27 07:37:37;;;;;;;34.53;10.40;;;;;;;1.46;93.04;103258.94;4954625;28;20293;-71
2024/01/27 07:40:05;;;;;;;29.50;11.83;;;;;;;1.45;93.29;103258.06;4954754;29;20302;-72
2024/01/27 07:42:31;;;;;;;17.83;10.27;;;;;;;1.45;93.09;103265.97;4955017;28;20551;-72
2024/01/27 07:44:58;;;;;;;18.97;10.50;;;;;;;1.44;93.05;103269.53;4954790;28;20791;-72
2024/01/27 07:47:24;;;;;;;18.47;9.73;;;;;;;1.44;93.06;103268.66;4954902;28;20215;-71
2024/01/27 07:49:52;;;;;;;17.60;10.27;;;;;;;1.41;92.81;103272.19;4955314;28;20186;-71
2024/01/27 07:52:19;;;;;;;15.03;9.37;;;;;;;1.34;92.97;103273.22;4954729;28;20203;-71
2024/01/27 07:54:46;;;;;;;23.97;10.67;;;;;;;1.26;92.99;103264.63;4954753;28;20195;-71
2024/01/27 07:57:12;;;;;;;16.13;9.13;;;;;;;1.25;93.02;103263.75;4954633;28;20218;-71
2024/01/27 07:59:38;;;;;;;22.73;10.40;;;;;;;1.23;93.09;103265.53;4954647;28;20302;-72
2024/01/27 08:02:05;;;;;;;27.50;10.53;;;;;;;1.23;93.15;103268.16;4954717;28;20191;-72
2024/01/27 08:04:32;;;;;;;22.10;11.07;;;;;;;1.24;93.18;103267.25;4954671;28;20734;-72
2024/01/27 08:07:05;;;;;;;17.23;10.03;;;;;;;1.25;93.31;103276.03;4954712;28;20225;-71
2024/01/27 08:09:32;;;;;;;25.87;10.27;;;;;;;1.40;93.24;103277.53;4957626;28;20557;-71
2024/01/27 08:11:59;;;;;;;27.93;9.97;;;;;;;1.41;92.74;103273.97;4958373;28;20613;-71
2024/01/27 08:14:26;;;;;;;19.77;10.33;;;;;;;1.41;92.69;103290.66;4958338;28;20270;-71
2024/01/27 08:16:52;;;;;;;15.33;10.77;;;;;;;1.47;92.79;103284.41;4958427;28;20211;-71
2024/01/27 08:19:24;;;;;;;19.83;11.00;;;;;;;1.56;92.88;103281.56;4957907;29;20542;-72
2024/01/27 08:21:50;;;;;;;14.70;10.03;;;;;;;1.60;93.00;103281.47;4957876;28;20202;-72
2024/01/27 08:24:17;;;;;;;32.07;10.70;;;;;;;1.66;93.00;103281.34;4956693;29;20605;-72
2024/01/27 08:26:44;;;;;;;21.53;9.90;;;;;;;1.79;93.00;103289.84;4957695;28;20651;-72
2024/01/27 08:29:11;;;;;;;18.53;9.77;;;;;;;1.91;92.82;103280.84;4957808;28;20190;-72
2024/01/27 08:31:38;;;;;;;21.67;9.97;;;;;;;2.07;92.54;103276.94;4958033;28;20651;-72
2024/01/27 08:34:05;;;;;;;16.77;10.37;;;;;;;2.09;92.53;103278.63;4957709;28;20194;-72
2024/01/27 08:36:33;;;;;;;15.97;10.80;;;;;;;2.26;91.75;103283.53;4957589;28;20195;-71
2024/01/27 08:39:00;;;;;;;24.30;12.37;;;;;;;2.31;91.80;103276.38;4957573;29;20277;-71
2024/01/27 08:41:26;;;;;;;24.87;12.37;;;;;;;2.39;91.84;103287.59;4957429;29;20299;-72
2024/01/27 08:43:55;;;;;;;25.87;10.47;;;;;;;2.49;91.48;103277.69;4957815;28;20195;-72
2024/01/27 08:46:22;;;;;;;23.80;11.43;;;;;;;2.61;91.21;103275.63;4957482;28;20196;-72
2024/01/27 08:48:48;;;;;;;26.13;9.97;;;;;;;2.63;90.70;103284.38;4956204;28;20216;-71
2024/01/27 08:51:16;;;;;;;17.90;12.23;;;;;;;2.69;90.26;103281.59;4957844;28;20193;-71
2024/01/27 08:53:48;;;;;;;14.17;9.90;;;;;;;2.85;89.85;103289.09;4957398;28;20189;-71
2024/01/27 08:56:17;;;;;;;13.40;8.23;;;;;;;2.90;90.16;103297.78;4957660;28;20182;-71
2024/01/27 08:58:44;;;;;;;16.77;8.70;;;;;;;3.03;89.19;103292.16;4957237;28;20212;-71
2024/01/27 09:01:14;;;;;;;23.20;9.57;;;;;;;3.16;88.85;103287.41;4957431;28;20583;-72
2024/01/27 09:03:41;;;;;;;20.60;9.53;;;;;;;3.29;89.15;103302.03;4957127;28;20198;-72
2024/01/27 09:06:07;;;;;;;16.07;8.93;;;;;;;3.57;86.36;103288.88;4957133;28;20222;-72
2024/01/27 09:08:34;;;;;;;26.03;8.40;;;;;;;3.67;86.01;103293.88;4957263;28;20218;-71
2024/01/27 09:11:02;;;;;;;14.73;8.17;;;;;;;3.73;85.11;103291.97;4957057;28;20244;-71
2024/01/27 09:13:28;;;;;;;17.43;7.70;;;;;;;3.75;85.52;103295.41;4957283;28;20565;-71
2024/01/27 09:15:57;;;;;;;14.67;8.37;;;;;;;3.78;85.15;103296.19;4956950;28;20530;-71
2024/01/27 09:18:23;;;;;;;13.87;7.77;;;;;;;3.88;84.54;103289.72;4956843;28;20218;-71
2024/01/27 09:20:53;;;;;;;17.40;7.67;;;;;;;3.95;85.19;103293.91;4955808;28;20210;-71
2024/01/27 09:23:19;;;;;;;22.00;8.30;;;;;;;4.03;84.33;103285.75;4956699;28;20339;-73
2024/01/27 09:25:46;;;;;;;26.83;8.80;;;;;;;4.12;84.07;103286.31;4957330;28;20579;-72
2024/01/27 09:28:12;;;;;;;15.63;7.53;;;;;;;4.23;84.22;103291.28;4956915;28;20765;-71
2024/01/27 09:30:40;;;;;;;27.03;8.10;;;;;;;4.37;83.44;103281.09;4956681;28;20552;-71
2024/01/27 09:33:06;;;;;;;16.67;8.40;;;;;;;4.43;83.12;103291.53;4956900;28;20198;-72
2024/01/27 09:35:33;;;;;;;14.00;8.10;;;;;;;4.48;81.60;103294.88;4956571;28;20742;-72
2024/01/27 09:38:00;;;;;;;16.43;7.80;;;;;;;4.53;82.79;103292.97;4956449;28;20219;-71
2024/01/27 09:40:26;;;;;;;21.97;7.73;;;;;;;4.51;81.39;103273.59;4956421;28;20218;-72
2024/01/27 09:42:56;;;;;;;26.40;9.00;;;;;;;4.57;80.90;103268.09;4956472;28;20186;-72
2024/01/27 09:45:23;;;;;;;21.47;7.90;;;;;;;4.57;81.58;103273.41;4956950;28;20646;-72
2024/01/27 09:47:51;;;;;;;21.90;7.97;;;;;;;4.61;81.57;103274.16;4956312;28;20306;-71
2024/01/27 09:50:18;;;;;;;23.00;8.37;;;;;;;4.69;81.92;103282.72;4956346;28;20191;-71
2024/01/27 09:52:45;;;;;;;29.00;9.77;;;;;;;4.78;82.48;103286.84;4956270;28;20562;-72
2024/01/27 09:55:11;;;;;;;19.10;8.00;;;;;;;4.86;83.10;103287.44;4956257;28;20194;-72
2024/01/27 09:57:39;;;;;;;20.03;7.73;;;;;;;4.99;82.46;103288.75;4956388;28;20260;-72
2024/01/27 10:00:16;;;;;;;15.03;8.23;;;;;;;5.09;81.79;103297.28;4956288;28;20214;-72
2024/01/27 10:02:44;;;;;;;31.57;8.33;;;;;;;5.21;80.57;103292.41;4956084;28;20187;-72
2024/01/27 10:05:11;;;;;;;17.70;7.27;;;;;;;5.29;79.60;103290.34;4956028;28;20238;-72
2024/01/27 10:07:38;;;;;;;16.70;7.07;;;;;;;5.37;79.77;103290.94;4955931;28;20566;-72
2024/01/27 10:10:05;;;;;;;14.17;6.27;;;;;;;5.45;79.29;103301.25;4955840;28;20198;-72
2024/01/27 10:12:32;;;;;;;14.37;6.47;;;;;;;5.56;78.92;103306.19;4956154;28;20623;-73
2024/01/27 10:14:59;;;;;;;17.50;6.93;;;;;;;5.62;78.72;103305.94;4955863;28;20194;-72
2024/01/27 10:17:29;;;;;;;12.30;6.20;;;;;;;5.77;78.45;103297.41;4955891;28;20202;-72
2024/01/27 10:20:01;;;;;;;28.10;7.13;;;;;;;5.85;77.28;103301.50;4956272;28;20271;-72
2024/01/27 10:22:27;;;;;;;22.87;7.93;;;;;;;5.92;77.39;103300.38;4955759;28;20179;-72
2024/01/27 10:24:55;;;;;;;14.17;6.80;;;;;;;6.02;77.22;103297.38;4955671;28;20622;-72
2024/01/27 10:27:22;;;;;;;28.80;7.63;;;;;;;5.98;76.28;103301.94;4955919;28;20623;-72
2024/01/27 10:29:53;;;;;;;24.73;7.37;;;;;;;6.06;76.73;103305.16;4955655;28;20265;-72
2024/01/27 10:32:20;;;;;;;13.30;6.33;;;;;;;6.07;76.51;103314.84;4955809;28;20187;-72
2024/01/27 10:34:47;;;;;;;17.67;7.37;;;;;;;6.05;76.15;103323.81;4955856;28;20186;-73
2024/01/27 10:37:13;;;;;;;7.70;6.20;;;;;;;5.96;76.68;103317.94;4955485;28;20236;-72
2024/01/27 10:39:41;;;;;;;19.57;7.27;;;;;;;6.12;77.01;103320.84;4955409;28;20190;-72
2024/01/27 10:42:09;;;;;;;13.93;6.60;;;;;;;6.13;75.78;103316.41;4955721;28;20554;-73
2024/01/27 10:44:39;;;;;;;23.77;7.20;;;;;;;5.87;76.19;103312.97;4955422;28;20282;-73
2024/01/27 10:47:10;;;;;;;8.70;6.40;;;;;;;5.87;77.05;103312.97;4955590;28;20233;-72
2024/01/27 10:49:41;;;;;;;19.27;7.53;;;;;;;5.97;77.41;103306.38;4955400;28;20584;-72
2024/01/27 10:52:12;;;;;;;25.10;8.83;;;;;;;5.98;77.42;103294.81;4955538;28;20521;-72
2024/01/27 10:54:41;;;;;;;20.50;8.23;;;;;;;5.88;75.67;103295.25;4955545;28;20182;-72
2024/01/27 10:57:09;;;;;;;17.80;8.40;;;;;;;5.96;76.92;103309.97;4955465;28;20215;-72
2024/01/27 10:59:37;;;;;;;15.30;8.53;;;;;;;6.00;77.74;103302.72;4955190;28;20679;-72
2024/01/27 11:02:04;;;;;;;26.17;8.23;;;;;;;6.05;76.75;103302.56;4955132;28;20261;-72
2024/01/27 11:04:35;;;;;;;21.00;8.87;;;;;;;5.96;76.71;103309.09;4955162;28;20190;-72
2024/01/27 11:07:02;;;;;;;21.73;8.50;;;;;;;6.06;77.23;103307.81;4955062;28;20248;-72
2024/01/27 11:09:30;;;;;;;15.57;7.60;;;;;;;6.07;76.74;103306.03;4955399;28;20198;-72
2024/01/27 11:11:57;;;;;;;21.80;8.20;;;;;;;6.12;76.96;103309.34;4955397;28;20186;-72
2024/01/27 11:14:24;;;;;;;12.60;8.23;;;;;;;6.04;75.82;103300.81;4955356;28;20185;-72
2024/01/27 11:16:55;;;;;;;26.40;8.70;;;;;;;6.16;76.41;103301.22;4955225;28;20686;-72
2024/01/27 11:19:22;;;;;;;26.30;8.27;;;;;;;6.12;75.25;103312.00;4955305;28;20186;-72